createdAt,value
2023-01-12T00:01:51.841Z,13.88
2023-01-12T00:04:18.303Z,19.52
2023-01-12T00:06:44.676Z,11.48
2023-01-12T00:09:11.296Z,9.73
2023-01-12T00:11:38.368Z,14.43
2023-01-12T00:14:07.234Z,15.75
2023-01-12T00:16:34.403Z,14.27
2023-01-12T00:19:02.090Z,15.20
2023-01-12T00:21:28.530Z,16.48
2023-01-12T00:23:54.854Z,14.63
2023-01-12T00:26:21.217Z,15.18
2023-01-12T00:28:47.506Z,13.02
2023-01-12T00:31:13.857Z,13.55
2023-01-12T00:33:40.180Z,18.55
2023-01-12T00:36:13.616Z,15.88
2023-01-12T00:38:39.930Z,11.52
2023-01-12T00:41:07.638Z,14.50
2023-01-12T00:43:34.707Z,13.23
2023-01-12T00:46:01.084Z,12.38
2023-01-12T00:48:27.405Z,15.25
2023-01-12T00:50:53.719Z,10.80
2023-01-12T00:53:20.027Z,10.63
2023-01-12T00:55:46.344Z,7.35
2023-01-12T00:58:12.684Z,7.28
2023-01-12T01:00:38.983Z,9.32
2023-01-12T01:03:05.367Z,11.00
2023-01-12T01:05:31.672Z,10.43
2023-01-12T01:07:57.980Z,8.75
2023-01-12T01:10:24.274Z,10.55
2023-01-12T01:12:50.593Z,10.10
2023-01-12T01:15:16.962Z,10.70
2023-01-12T01:17:43.272Z,12.98
2023-01-12T01:20:10.400Z,7.72
2023-01-12T01:22:36.713Z,11.13
2023-01-12T01:25:03.187Z,9.23
2023-01-12T01:27:29.488Z,9.35
2023-01-12T01:29:55.779Z,10.23
2023-01-12T01:32:22.061Z,18.40
2023-01-12T01:34:48.371Z,16.00
2023-01-12T01:37:14.663Z,14.50
2023-01-12T01:39:40.984Z,15.98
2023-01-12T01:42:18.095Z,17.45
2023-01-12T01:44:44.330Z,14.48
2023-01-12T01:47:21.708Z,20.67
2023-01-12T01:49:52.220Z,16.75
2023-01-12T01:52:45.370Z,14.25
2023-01-12T01:55:20.786Z,13.52
2023-01-12T01:57:49.725Z,10.45
2023-01-12T02:00:16.795Z,19.58
2023-01-12T02:02:46.243Z,11.75
2023-01-12T02:05:17.187Z,19.08
2023-01-12T02:07:43.498Z,14.40
2023-01-12T02:10:10.502Z,15.30
2023-01-12T02:12:36.853Z,14.43
2023-01-12T02:15:03.650Z,12.55
2023-01-12T02:17:44.012Z,19.92
2023-01-12T02:20:54.634Z,15.43
2023-01-12T02:23:42.078Z,13.25
2023-01-12T02:26:39.303Z,13.27
2023-01-12T02:29:27.372Z,13.32
2023-01-12T02:32:02.845Z,7.78
2023-01-12T02:34:58.147Z,17.17
2023-01-12T02:37:43.150Z,10.68
2023-01-12T02:40:21.502Z,11.07
2023-01-12T02:43:06.660Z,12.00
2023-01-12T02:45:39.401Z,12.65
2023-01-12T02:48:09.137Z,10.88
2023-01-12T02:50:59.448Z,11.73
2023-01-12T02:53:44.803Z,11.18
2023-01-12T02:56:16.768Z,13.15
2023-01-12T02:58:47.710Z,12.75
2023-01-12T03:01:16.614Z,10.75
2023-01-12T03:03:43.630Z,10.88
2023-01-12T03:06:09.959Z,12.02
2023-01-12T03:08:39.520Z,13.45
2023-01-12T03:11:08.850Z,10.45
2023-01-12T03:13:39.383Z,12.60
2023-01-12T03:16:08.304Z,17.30
2023-01-12T03:19:17.865Z,12.90
2023-01-12T03:21:55.774Z,17.15
2023-01-12T03:24:27.621Z,14.98
2023-01-12T03:27:01.850Z,15.95
2023-01-12T03:29:34.429Z,12.50
2023-01-12T03:32:01.003Z,13.82
2023-01-12T03:34:28.607Z,16.30
2023-01-12T03:37:11.265Z,8.90
2023-01-12T03:39:48.066Z,17.52
2023-01-12T03:42:21.405Z,19.45
2023-01-12T03:45:04.062Z,13.80
2023-01-12T03:47:32.847Z,13.50
2023-01-12T03:50:09.452Z,12.32
2023-01-12T03:52:38.340Z,19.42
2023-01-12T03:55:07.661Z,13.73
2023-01-12T03:57:35.647Z,12.25
2023-01-12T04:00:02.725Z,14.70
2023-01-12T04:02:29.073Z,13.52
2023-01-12T04:04:55.381Z,13.52
2023-01-12T04:07:21.728Z,15.50
2023-01-12T04:09:48.075Z,17.00
2023-01-12T04:12:14.379Z,11.95
2023-01-12T04:14:47.756Z,10.18
2023-01-12T04:17:14.877Z,12.25
2023-01-12T04:19:41.440Z,12.65
2023-01-12T04:22:09.716Z,14.23
2023-01-12T04:24:36.017Z,15.82
2023-01-12T04:27:02.352Z,14.82
2023-01-12T04:29:28.707Z,15.45
2023-01-12T04:31:55.080Z,17.08
2023-01-12T04:34:21.430Z,16.35
2023-01-12T04:36:47.800Z,17.25
2023-01-12T04:39:14.093Z,18.40
2023-01-12T04:41:40.476Z,21.10
2023-01-12T04:44:06.819Z,16.92
2023-01-12T04:46:33.155Z,16.63
2023-01-12T04:48:59.488Z,16.98
2023-01-12T04:51:26.029Z,18.33
2023-01-12T04:53:52.584Z,12.25
2023-01-12T04:56:19.146Z,17.75
2023-01-12T04:58:45.452Z,15.10
2023-01-12T05:01:17.822Z,19.00
2023-01-12T05:03:45.317Z,20.08
2023-01-12T05:06:12.410Z,16.58
2023-01-12T05:08:39.116Z,13.60
2023-01-12T05:11:05.415Z,12.63
2023-01-12T05:13:31.839Z,13.90
2023-01-12T05:16:08.191Z,21.65
2023-01-12T05:18:34.490Z,13.95
2023-01-12T05:21:00.812Z,16.92
2023-01-12T05:23:27.119Z,16.23
2023-01-12T05:25:53.436Z,13.10
2023-01-12T05:28:19.742Z,10.18
2023-01-12T05:30:46.080Z,14.43
2023-01-12T05:33:12.961Z,11.20
2023-01-12T05:35:39.257Z,7.95
2023-01-12T05:38:05.586Z,8.88
2023-01-12T05:40:31.880Z,7.05
2023-01-12T05:42:58.201Z,11.73
2023-01-12T05:45:24.496Z,10.13
2023-01-12T05:48:00.380Z,12.85
2023-01-12T05:50:26.668Z,9.35
2023-01-12T05:52:53.016Z,9.68
2023-01-12T05:55:19.388Z,10.05
2023-01-12T05:57:45.714Z,11.25
2023-01-12T06:00:12.708Z,7.93
2023-01-12T06:02:39.191Z,6.47
2023-01-12T06:05:06.022Z,8.02
2023-01-12T06:07:32.368Z,9.25
2023-01-12T06:09:58.655Z,7.20
2023-01-12T06:12:24.967Z,6.60
2023-01-12T06:14:51.341Z,5.80
2023-01-12T06:17:17.649Z,8.07
2023-01-12T06:19:43.948Z,8.93
2023-01-12T06:22:10.273Z,4.80
2023-01-12T06:24:37.204Z,6.05
2023-01-12T06:27:03.620Z,5.45
2023-01-12T06:29:29.899Z,3.38
2023-01-12T06:31:56.235Z,5.63
2023-01-12T06:34:22.547Z,2.85
2023-01-12T06:36:48.850Z,6.13
2023-01-12T06:39:15.287Z,4.72
2023-01-12T06:41:41.585Z,4.38
2023-01-12T06:44:07.866Z,5.85
2023-01-12T06:46:34.211Z,7.80
2023-01-12T06:49:00.608Z,3.40
2023-01-12T06:51:27.178Z,6.40
2023-01-12T06:53:53.697Z,6.35
2023-01-12T06:56:20.626Z,3.00
2023-01-12T06:58:46.952Z,4.55
2023-01-12T07:01:13.344Z,7.45
2023-01-12T07:03:39.717Z,6.13
2023-01-12T07:06:06.151Z,2.08
2023-01-12T07:08:32.942Z,4.28
2023-01-12T07:11:06.993Z,5.25
2023-01-12T07:13:33.891Z,2.35
2023-01-12T07:16:01.297Z,4.25
2023-01-12T07:18:29.215Z,3.80
2023-01-12T07:20:55.548Z,4.45
2023-01-12T07:23:22.253Z,2.33
2023-01-12T07:25:48.633Z,3.60
2023-01-12T07:28:15.331Z,4.60
2023-01-12T07:30:41.769Z,6.35
2023-01-12T07:33:09.842Z,5.28
2023-01-12T07:35:36.291Z,3.35
2023-01-12T07:38:02.687Z,1.95
2023-01-12T07:40:29.008Z,3.13
2023-01-12T07:43:03.599Z,3.00
2023-01-12T07:45:30.485Z,1.90
2023-01-12T07:47:57.239Z,2.67
2023-01-12T07:50:25.535Z,4.55
2023-01-12T07:52:52.371Z,2.42
2023-01-12T07:55:19.211Z,2.25
2023-01-12T07:58:02.528Z,3.35
2023-01-12T08:00:30.701Z,4.00
2023-01-12T08:03:05.000Z,2.88
2023-01-12T08:05:31.323Z,2.10
2023-01-12T08:07:57.646Z,2.17
2023-01-12T08:10:23.965Z,4.57
2023-01-12T08:12:51.644Z,1.17
2023-01-12T08:15:18.271Z,2.67
2023-01-12T08:17:51.447Z,3.67
2023-01-12T08:20:21.695Z,1.35
2023-01-12T08:22:52.127Z,4.45
2023-01-12T08:25:23.085Z,1.05
2023-01-12T08:27:54.121Z,3.47
2023-01-12T08:30:23.735Z,3.35
2023-01-12T08:32:50.283Z,3.22
2023-01-12T08:35:21.752Z,1.88
2023-01-12T08:37:48.050Z,3.75
2023-01-12T08:40:14.864Z,2.38
2023-01-12T08:42:41.186Z,2.22
2023-01-12T08:45:08.259Z,1.80
2023-01-12T08:47:34.653Z,1.13
2023-01-12T08:50:01.292Z,2.92
2023-01-12T08:52:28.372Z,1.58
2023-01-12T08:54:55.541Z,3.65
2023-01-12T08:57:22.304Z,1.50
2023-01-12T08:59:48.664Z,2.30
2023-01-12T09:02:16.316Z,5.20
2023-01-12T09:04:42.772Z,2.17
2023-01-12T09:07:10.784Z,2.22
2023-01-12T09:09:37.301Z,1.58
2023-01-12T09:12:04.177Z,2.25
2023-01-12T09:14:30.561Z,2.72
2023-01-12T09:16:56.989Z,3.88
2023-01-12T09:19:23.518Z,3.05
2023-01-12T09:21:49.823Z,2.85
2023-01-12T09:24:16.224Z,3.40
2023-01-12T09:26:45.342Z,3.97
2023-01-12T09:29:13.725Z,4.57
2023-01-12T09:31:42.424Z,3.63
2023-01-12T09:34:09.086Z,2.20
2023-01-12T09:36:37.735Z,3.80
2023-01-12T09:39:06.047Z,3.83
2023-01-12T09:41:48.370Z,3.75
2023-01-12T09:44:16.908Z,4.70
2023-01-12T09:46:43.214Z,4.35
2023-01-12T09:49:09.732Z,5.13
2023-01-12T09:51:43.431Z,7.25
2023-01-12T09:54:10.628Z,3.17
2023-01-12T09:56:46.981Z,3.97
2023-01-12T09:59:40.186Z,6.10
2023-01-12T10:02:11.768Z,5.75
2023-01-12T10:04:38.308Z,2.80
2023-01-12T10:07:04.719Z,9.95
2023-01-12T10:09:31.068Z,3.53
2023-01-12T10:12:15.396Z,3.67
2023-01-12T10:15:18.406Z,5.37
2023-01-12T10:18:18.164Z,5.93
2023-01-12T10:20:45.158Z,4.90
2023-01-12T10:23:17.165Z,4.80
2023-01-12T10:25:48.516Z,3.72
2023-01-12T10:28:21.512Z,4.47
2023-01-12T10:30:47.876Z,6.00
2023-01-12T10:33:17.506Z,5.32
2023-01-12T10:35:55.759Z,5.25
2023-01-12T10:38:31.049Z,6.40
2023-01-12T10:41:03.138Z,3.97
2023-01-12T10:43:29.524Z,5.10
2023-01-12T10:46:12.887Z,3.38
2023-01-12T10:48:44.520Z,4.55
2023-01-12T10:51:26.141Z,5.65
2023-01-12T10:54:09.426Z,5.10
2023-01-12T10:56:37.988Z,3.63
2023-01-12T10:59:13.236Z,7.55
2023-01-12T11:02:04.664Z,5.30
2023-01-12T11:04:37.986Z,3.72
2023-01-12T11:07:27.934Z,4.72
2023-01-12T11:09:55.685Z,4.57
2023-01-12T11:12:34.107Z,4.03
2023-01-12T11:15:09.293Z,3.58
2023-01-12T11:17:50.327Z,4.68
2023-01-12T11:20:27.279Z,2.97
2023-01-12T11:22:56.372Z,3.67
2023-01-12T11:25:24.960Z,5.30
2023-01-12T11:27:57.488Z,3.33
2023-01-12T11:30:37.879Z,3.95
2023-01-12T11:33:12.885Z,7.15
2023-01-12T11:38:23.363Z,6.00
2023-01-12T11:40:49.709Z,5.40
2023-01-12T11:43:35.395Z,5.20
2023-01-12T11:46:12.284Z,4.82
2023-01-12T11:49:20.130Z,9.35
2023-01-12T11:51:53.263Z,6.85
2023-01-12T11:54:19.704Z,6.13
2023-01-12T11:57:16.122Z,4.40
2023-01-12T12:00:13.268Z,18.02
2023-01-12T12:02:59.695Z,4.68
2023-01-12T12:05:45.436Z,5.80
2023-01-12T12:08:17.512Z,5.45
2023-01-12T12:10:59.407Z,6.47
2023-01-12T12:14:01.728Z,5.85
2023-01-12T12:16:46.962Z,6.50
2023-01-12T12:22:01.732Z,7.38
2023-01-12T12:24:56.292Z,5.95
2023-01-12T12:27:38.190Z,8.40
2023-01-12T12:30:15.018Z,7.43
2023-01-12T12:32:49.081Z,6.72
2023-01-12T12:35:32.734Z,6.55
2023-01-12T12:38:08.099Z,4.85
2023-01-12T12:41:11.460Z,4.55
2023-01-12T12:43:38.320Z,4.63
2023-01-12T12:46:46.971Z,4.35
2023-01-12T12:49:17.411Z,6.45
2023-01-12T12:51:46.015Z,3.80
2023-01-12T12:54:17.890Z,5.03
2023-01-12T12:56:45.529Z,7.70
2023-01-12T12:59:38.153Z,6.75
2023-01-12T13:02:04.569Z,4.57
2023-01-12T13:04:42.789Z,4.47
2023-01-12T13:07:16.378Z,4.47
2023-01-12T13:09:43.632Z,4.97
2023-01-12T13:12:29.696Z,4.00
2023-01-12T13:15:18.341Z,5.80
2023-01-12T13:17:46.505Z,3.65
2023-01-12T13:20:24.727Z,5.85
2023-01-12T13:22:51.603Z,3.90
2023-01-12T13:25:17.850Z,4.10
2023-01-12T13:27:56.319Z,4.22
2023-01-12T13:30:28.622Z,3.92
2023-01-12T13:32:54.937Z,4.38
2023-01-12T13:35:33.531Z,5.25
2023-01-12T13:38:14.990Z,3.70
2023-01-12T13:40:41.873Z,4.82
2023-01-12T13:43:27.267Z,5.43
2023-01-12T13:46:15.938Z,5.47
2023-01-12T13:48:45.635Z,4.15
2023-01-12T13:51:15.563Z,4.97
2023-01-12T13:53:41.848Z,6.78
2023-01-12T13:56:19.436Z,4.00
2023-01-12T13:58:45.778Z,4.20
2023-01-12T14:01:26.533Z,3.15
2023-01-12T14:04:07.820Z,2.63
2023-01-12T14:07:07.918Z,2.70
2023-01-12T14:09:54.909Z,2.63
2023-01-12T14:12:58.860Z,4.78
2023-01-12T14:15:35.591Z,2.10
2023-01-12T14:18:11.830Z,2.38
2023-01-12T14:20:48.437Z,6.75
2023-01-12T14:23:25.894Z,3.38
2023-01-12T14:26:11.494Z,2.88
2023-01-12T14:28:45.968Z,1.98
2023-01-12T14:31:21.895Z,3.35
2023-01-12T14:33:51.401Z,4.05
2023-01-12T14:36:22.712Z,4.85
2023-01-12T14:38:50.009Z,2.20
2023-01-12T14:41:19.809Z,3.50
2023-01-12T14:43:46.163Z,3.03
2023-01-12T14:46:19.586Z,3.28
2023-01-12T14:48:55.588Z,2.75
2023-01-12T14:51:26.603Z,3.60
2023-01-12T14:53:59.363Z,5.10
2023-01-12T14:56:37.585Z,3.78
2023-01-12T14:59:12.707Z,4.25
2023-01-12T15:01:41.288Z,5.05
2023-01-12T15:04:16.161Z,4.05
2023-01-12T15:06:44.138Z,4.28
2023-01-12T15:09:26.145Z,3.72
2023-01-12T15:11:52.484Z,3.58
2023-01-12T15:14:24.973Z,5.85
2023-01-12T15:16:53.046Z,4.40
2023-01-12T15:19:19.358Z,3.25
2023-01-12T15:21:46.218Z,5.82
2023-01-12T15:24:32.803Z,3.85
2023-01-12T15:27:06.461Z,3.50
2023-01-12T15:29:33.142Z,6.38
2023-01-12T15:31:59.658Z,4.43
2023-01-12T15:34:26.006Z,4.30
2023-01-12T15:36:52.334Z,6.80
2023-01-12T15:39:18.739Z,3.67
2023-01-12T15:41:45.130Z,5.55
2023-01-12T15:44:16.167Z,3.33
2023-01-12T15:46:42.853Z,4.85
2023-01-12T15:49:11.136Z,1.88
2023-01-12T15:51:37.530Z,5.93
2023-01-12T15:54:04.446Z,3.80
2023-01-12T15:56:31.021Z,3.95
2023-01-12T15:58:57.323Z,4.53
2023-01-12T16:01:32.292Z,4.35
2023-01-12T16:04:35.548Z,2.95
2023-01-12T16:06:44.952Z,2.63
2023-01-12T16:09:11.585Z,2.83
2023-01-12T16:11:37.903Z,3.25
2023-01-12T16:14:04.264Z,3.88
2023-01-12T16:16:30.607Z,2.90
2023-01-12T16:18:56.946Z,3.47
2023-01-12T16:21:23.318Z,4.68
2023-01-12T16:23:49.640Z,3.40
2023-01-12T16:26:16.063Z,5.75
2023-01-12T16:28:42.815Z,4.20
2023-01-12T16:31:12.143Z,4.07
2023-01-12T16:33:40.262Z,2.97
2023-01-12T16:36:07.652Z,4.35
2023-01-12T16:38:34.477Z,4.90
2023-01-12T16:41:12.486Z,3.15
2023-01-12T16:43:38.803Z,4.38
2023-01-12T16:46:05.850Z,3.70
2023-01-12T16:48:33.326Z,3.92
2023-01-12T16:51:00.087Z,4.20
2023-01-12T16:53:27.189Z,4.50
2023-01-12T16:55:53.554Z,3.97
2023-01-12T16:58:20.082Z,5.47
2023-01-12T17:00:46.646Z,6.95
2023-01-12T17:03:13.140Z,8.20
2023-01-12T17:05:42.544Z,6.50
2023-01-12T17:08:09.403Z,6.05
2023-01-12T17:10:36.555Z,10.52
2023-01-12T17:13:03.154Z,8.77
2023-01-12T17:15:30.201Z,21.65
2023-01-12T17:17:56.750Z,11.23
2023-01-12T17:20:23.190Z,8.88
2023-01-12T17:22:50.288Z,10.15
2023-01-12T17:25:16.693Z,8.85
2023-01-12T17:27:43.072Z,8.40
2023-01-12T17:30:10.429Z,9.27
2023-01-12T17:32:36.753Z,7.78
2023-01-12T17:35:03.226Z,7.55
2023-01-12T17:37:29.603Z,8.52
2023-01-12T17:39:55.929Z,10.60
2023-01-12T17:42:22.547Z,42.90
2023-01-12T17:44:48.882Z,22.10
2023-01-12T17:47:15.201Z,5.20
2023-01-12T17:49:41.595Z,4.18
2023-01-12T17:52:07.937Z,5.85
2023-01-12T17:54:34.374Z,5.35
2023-01-12T17:57:00.715Z,6.63
2023-01-12T17:59:27.270Z,4.82
2023-01-12T18:01:53.852Z,6.72
2023-01-12T18:04:20.319Z,7.10
2023-01-12T18:06:46.757Z,7.18
2023-01-12T18:09:13.444Z,5.90
2023-01-12T18:11:40.240Z,6.68
2023-01-12T18:14:07.193Z,7.40
2023-01-12T18:16:34.185Z,8.30
2023-01-12T18:19:03.457Z,5.25
2023-01-12T18:21:29.922Z,6.55
2023-01-12T18:23:56.799Z,6.55
2023-01-12T18:26:26.081Z,5.43
2023-01-12T18:28:53.925Z,4.80
2023-01-12T18:31:23.414Z,6.03
2023-01-12T18:33:51.315Z,6.63
2023-01-12T18:36:22.798Z,6.38
2023-01-12T18:38:50.589Z,7.35
2023-01-12T18:41:19.140Z,4.85
2023-01-12T18:43:45.445Z,5.28
2023-01-12T18:46:11.810Z,6.80
2023-01-12T18:48:38.522Z,7.13
2023-01-12T18:51:04.940Z,7.60
2023-01-12T18:53:31.258Z,7.28
2023-01-12T18:55:58.079Z,5.53
2023-01-12T18:58:27.191Z,5.45
2023-01-12T19:00:58.078Z,5.13
2023-01-12T19:03:24.816Z,6.20
2023-01-12T19:05:51.674Z,4.82
2023-01-12T19:08:18.029Z,3.90
2023-01-12T19:10:44.456Z,5.65
2023-01-12T19:13:10.783Z,5.65
2023-01-12T19:15:37.712Z,4.90
2023-01-12T19:18:04.299Z,6.72
2023-01-12T19:20:30.822Z,4.15
2023-01-12T19:22:57.153Z,3.75
2023-01-12T19:25:24.350Z,4.43
2023-01-12T19:27:50.660Z,4.38
2023-01-12T19:30:17.391Z,4.22
2023-01-12T19:32:43.718Z,5.03
2023-01-12T19:35:11.582Z,4.75
2023-01-12T19:37:39.587Z,5.20
2023-01-12T19:40:06.878Z,4.30
2023-01-12T19:42:33.375Z,6.82
2023-01-12T19:44:59.701Z,3.38
2023-01-12T19:47:26.013Z,2.63
2023-01-12T19:49:52.374Z,3.65
2023-01-12T19:52:19.439Z,3.63
2023-01-12T19:54:45.998Z,3.72
2023-01-12T19:57:12.345Z,3.35
2023-01-12T19:59:38.659Z,4.28
2023-01-12T20:02:05.059Z,4.20
2023-01-12T20:04:31.484Z,3.65
2023-01-12T20:06:57.832Z,4.43
2023-01-12T20:09:24.215Z,5.10
2023-01-12T20:11:50.520Z,5.28
2023-01-12T20:14:16.814Z,2.67
2023-01-12T20:16:43.153Z,3.25
2023-01-12T20:19:09.453Z,3.83
2023-01-12T20:21:35.778Z,3.72
2023-01-12T20:24:02.135Z,3.10
2023-01-12T20:26:28.445Z,3.97
2023-01-12T20:28:54.742Z,4.68
2023-01-12T20:31:21.180Z,2.97
2023-01-12T20:33:47.770Z,3.65
2023-01-12T20:36:16.959Z,3.55
2023-01-12T20:38:43.639Z,2.92
2023-01-12T20:41:10.795Z,4.55
2023-01-12T20:43:37.653Z,3.70
2023-01-12T20:46:08.031Z,5.50
2023-01-12T20:48:34.351Z,4.82
2023-01-12T20:51:00.677Z,4.75
2023-01-12T20:53:26.975Z,4.57
2023-01-12T20:55:53.337Z,8.27
2023-01-12T20:58:19.877Z,2.85
2023-01-12T21:00:46.484Z,3.13
2023-01-12T21:03:14.453Z,3.10
2023-01-12T21:05:42.444Z,3.25
2023-01-12T21:08:09.182Z,4.10
2023-01-12T21:10:37.099Z,5.57
2023-01-12T21:13:03.627Z,2.72
2023-01-12T21:15:29.956Z,2.58
2023-01-12T21:17:56.248Z,3.08
2023-01-12T21:20:22.587Z,2.83
2023-01-12T21:22:49.109Z,3.30
2023-01-12T21:25:15.663Z,3.25
2023-01-12T21:27:41.971Z,2.33
2023-01-12T21:30:08.926Z,2.28
2023-01-12T21:32:35.241Z,4.05
2023-01-12T21:35:01.589Z,4.25
2023-01-12T21:37:27.923Z,2.75
2023-01-12T21:39:54.246Z,4.18
2023-01-12T21:42:20.552Z,3.70
2023-01-12T21:44:46.866Z,3.63
2023-01-12T21:47:13.206Z,3.13
2023-01-12T21:49:39.518Z,4.75
2023-01-12T21:52:05.815Z,3.38
2023-01-12T21:54:32.128Z,7.18
2023-01-12T21:56:58.564Z,5.55
2023-01-12T21:59:24.864Z,3.10
2023-01-12T22:01:51.388Z,5.38
2023-01-12T22:04:17.853Z,3.65
2023-01-12T22:06:44.194Z,3.42
2023-01-12T22:09:10.500Z,4.65
2023-01-12T22:11:36.882Z,5.55
2023-01-12T22:14:03.196Z,6.93
2023-01-12T22:16:29.584Z,4.07
2023-01-12T22:18:55.889Z,4.22
2023-01-12T22:21:22.181Z,3.80
2023-01-12T22:23:48.763Z,4.05
2023-01-12T22:26:16.529Z,6.13
2023-01-12T22:28:44.669Z,2.88
2023-01-12T22:31:13.824Z,3.92
2023-01-12T22:33:43.188Z,4.65
2023-01-12T22:36:09.593Z,4.35
2023-01-12T22:38:35.899Z,3.88
2023-01-12T22:41:07.324Z,3.20
2023-01-12T22:43:34.438Z,9.93
2023-01-12T22:46:00.825Z,5.15
2023-01-12T22:48:27.942Z,3.95
2023-01-12T22:50:54.593Z,3.15
2023-01-12T22:53:22.728Z,4.22
2023-01-12T22:55:49.028Z,2.78
2023-01-12T22:58:15.373Z,4.20
2023-01-12T23:00:42.191Z,3.33
2023-01-12T23:03:10.562Z,3.53
2023-01-12T23:05:44.688Z,4.72
2023-01-12T23:08:12.281Z,3.30
2023-01-12T23:10:38.776Z,6.15
2023-01-12T23:13:05.227Z,3.80
2023-01-12T23:15:31.707Z,4.38
2023-01-12T23:17:58.307Z,6.10
2023-01-12T23:20:25.104Z,4.53
2023-01-12T23:22:51.574Z,3.47
2023-01-12T23:25:18.022Z,5.18
2023-01-12T23:27:44.483Z,5.00
2023-01-12T23:30:11.482Z,5.00
2023-01-12T23:32:37.922Z,4.50
2023-01-12T23:35:04.750Z,4.78
2023-01-12T23:37:31.196Z,5.28
2023-01-12T23:39:57.665Z,4.82
2023-01-12T23:42:24.109Z,4.50
2023-01-12T23:44:50.569Z,4.28
2023-01-12T23:47:17.031Z,5.82
2023-01-12T23:49:43.486Z,4.78
2023-01-12T23:52:10.658Z,3.95
2023-01-12T23:54:37.145Z,4.60
2023-01-12T23:57:03.673Z,3.88
2023-01-12T23:59:30.172Z,3.28
